Time,TemperatureF,DewpointF,PressureIn,WindDirection,WindDirectionDegrees,WindSpeedMPH,WindSpeedGustMPH,Humidity,HourlyPrecipIn,Conditions,Clouds,dailyrainin,SoftwareType,DateUTC
2013-01-25 00:02:00,43.0,32.0,30.29,WNW,284,0.0,1.0,64,0.00,,,0.00,,2013-01-25 07:02:00,
2013-01-25 00:11:00,43.0,32.0,30.29,WNW,284,0.0,1.0,64,0.00,,,0.00,,2013-01-25 07:11:00,
2013-01-25 00:21:00,42.0,31.0,30.28,WNW,290,0.0,2.0,65,0.00,,,0.00,,2013-01-25 07:21:00,
2013-01-25 00:32:00,42.0,32.0,30.28,WNW,295,0.0,1.0,67,0.00,,,0.00,,2013-01-25 07:32:00,
2013-01-25 00:42:00,42.0,32.0,30.28,WNW,295,0.0,1.0,67,0.00,,,0.00,,2013-01-25 07:42:00,
2013-01-25 00:51:00,41.0,32.0,30.28,WNW,291,0.0,3.0,69,0.00,,,0.00,,2013-01-25 07:51:00,
2013-01-25 01:02:00,41.0,31.0,30.29,WNW,296,1.0,4.0,68,0.00,,,0.00,,2013-01-25 08:02:00,
2013-01-25 01:11:00,41.0,31.0,30.29,WNW,296,1.0,4.0,68,0.00,,,0.00,,2013-01-25 08:11:00,
2013-01-25 01:21:00,41.0,32.0,30.29,NW,311,0.0,1.0,69,0.00,,,0.00,,2013-01-25 08:21:00,
2013-01-25 01:32:00,40.0,31.0,30.29,NNW,347,0.0,1.0,71,0.00,,,0.00,,2013-01-25 08:32:00,
2013-01-25 01:41:00,40.0,31.0,30.29,NNW,347,0.0,1.0,71,0.00,,,0.00,,2013-01-25 08:41:00,
2013-01-25 01:52:00,40.0,31.0,30.29,NNW,347,0.0,1.0,71,0.00,,,0.00,,2013-01-25 08:52:00,
2013-01-25 02:02:00,41.0,32.0,30.29,West,270,0.0,1.0,71,0.00,,,0.00,,2013-01-25 09:02:00,
2013-01-25 02:11:00,41.0,32.0,30.29,West,270,0.0,1.0,71,0.00,,,0.00,,2013-01-25 09:11:00,
2013-01-25 02:21:00,42.0,33.0,30.30,SE,133,1.0,4.0,69,0.00,,,0.00,,2013-01-25 09:21:00,
2013-01-25 02:31:00,42.0,33.0,30.30,SE,133,1.0,4.0,69,0.00,,,0.00,,2013-01-25 09:31:00,
2013-01-25 02:42:00,42.0,33.0,30.30,SE,133,1.0,4.0,69,0.00,,,0.00,,2013-01-25 09:42:00,
2013-01-25 02:52:00,41.0,32.0,30.29,North,355,0.0,1.0,69,0.00,,,0.00,,2013-01-25 09:52:00,
2013-01-25 03:02:00,41.0,32.0,30.29,SSE,152,0.0,1.0,70,0.00,,,0.00,,2013-01-25 10:02:00,
2013-01-25 03:12:00,41.0,32.0,30.29,SSE,152,0.0,1.0,70,0.00,,,0.00,,2013-01-25 10:12:00,
2013-01-25 03:21:00,42.0,32.0,30.28,SSE,157,0.0,1.0,68,0.00,,,0.00,,2013-01-25 10:21:00,
2013-01-25 03:32:00,43.0,32.0,30.29,NW,306,0.0,3.0,64,0.00,,,0.00,,2013-01-25 10:32:00,
2013-01-25 03:42:00,43.0,32.0,30.29,NW,306,0.0,3.0,64,0.00,,,0.00,,2013-01-25 10:42:00,
2013-01-25 03:51:00,43.0,32.0,30.29,NW,306,0.0,3.0,64,0.00,,,0.00,,2013-01-25 10:51:00,
2013-01-25 04:02:00,42.0,30.0,30.27,North,357,0.0,2.0,63,0.00,,,0.00,,2013-01-25 11:02:00,
2013-01-25 04:11:00,42.0,30.0,30.27,North,357,0.0,2.0,63,0.00,,,0.00,,2013-01-25 11:11:00,
2013-01-25 04:22:00,41.0,31.0,30.27,North,0,0.0,0.0,66,0.00,,,0.00,,2013-01-25 11:22:00,
2013-01-25 04:32:00,41.0,31.0,30.27,North,0,0.0,0.0,66,0.00,,,0.00,,2013-01-25 11:32:00,
2013-01-25 04:42:00,41.0,31.0,30.27,North,0,0.0,0.0,66,0.00,,,0.00,,2013-01-25 11:42:00,
2013-01-25 04:52:00,41.0,31.0,30.26,North,355,0.0,1.0,66,0.00,,,0.00,,2013-01-25 11:52:00,
2013-01-25 05:02:00,42.0,31.0,30.26,North,355,0.0,1.0,64,0.00,,,0.00,,2013-01-25 12:02:00,
2013-01-25 05:11:00,42.0,31.0,30.26,North,355,0.0,1.0,64,0.00,,,0.00,,2013-01-25 12:11:00,
2013-01-25 05:22:00,41.0,30.0,30.24,North,0,0.0,0.0,65,0.00,,,0.00,,2013-01-25 12:22:00,
2013-01-25 05:32:00,40.0,30.0,30.25,North,1,0.0,1.0,67,0.00,,,0.00,,2013-01-25 12:32:00,
2013-01-25 05:42:00,40.0,30.0,30.25,North,1,0.0,1.0,67,0.00,,,0.00,,2013-01-25 12:42:00,
2013-01-25 05:53:00,39.0,30.0,30.26,North,0,0.0,0.0,69,0.00,,,0.00,,2013-01-25 12:53:00,
2013-01-25 06:02:00,39.0,30.0,30.27,North,0,0.0,0.0,70,0.00,,,0.00,,2013-01-25 13:02:00,
2013-01-25 06:11:00,39.0,30.0,30.27,North,0,0.0,0.0,70,0.00,,,0.00,,2013-01-25 13:11:00,
2013-01-25 06:22:00,39.0,30.0,30.27,North,0,0.0,0.0,70,0.00,,,0.00,,2013-01-25 13:22:00,
2013-01-25 06:32:00,37.0,29.0,30.27,North,0,0.0,0.0,73,0.00,,,0.00,,2013-01-25 13:32:00,
2013-01-25 06:42:00,37.0,29.0,30.27,North,0,0.0,0.0,73,0.00,,,0.00,,2013-01-25 13:42:00,
2013-01-25 06:53:00,38.0,30.0,30.28,North,0,0.0,0.0,74,0.00,,,0.00,,2013-01-25 13:53:00,
2013-01-25 07:03:00,40.0,32.0,30.29,NW,308,0.0,1.0,72,0.00,,,0.00,,2013-01-25 14:03:00,
2013-01-25 07:12:00,40.0,32.0,30.29,NW,308,0.0,1.0,72,0.00,,,0.00,,2013-01-25 14:12:00,
2013-01-25 07:23:00,40.0,32.0,30.29,WNW,288,0.0,1.0,72,0.00,,,0.00,,2013-01-25 14:23:00,
2013-01-25 07:32:00,40.0,32.0,30.30,WNW,288,0.0,1.0,73,0.00,,,0.00,,2013-01-25 14:32:00,
2013-01-25 07:42:00,40.0,32.0,30.30,WNW,288,0.0,1.0,73,0.00,,,0.00,,2013-01-25 14:42:00,
2013-01-25 07:52:00,40.0,32.0,30.30,WNW,288,0.0,1.0,73,0.00,,,0.00,,2013-01-25 14:52:00,
2013-01-25 08:02:00,43.0,34.0,30.31,WNW,289,0.0,2.0,71,0.00,,,0.00,,2013-01-25 15:02:00,
2013-01-25 08:12:00,43.0,34.0,30.31,WNW,289,0.0,2.0,71,0.00,,,0.00,,2013-01-25 15:12:00,
2013-01-25 08:22:00,43.0,34.0,30.31,NW,324,0.0,3.0,70,0.00,,,0.00,,2013-01-25 15:22:00,
2013-01-25 08:32:00,44.0,35.0,30.32,WNW,296,0.0,1.0,70,0.00,,,0.00,,2013-01-25 15:32:00,
2013-01-25 08:42:00,44.0,35.0,30.32,WNW,296,0.0,1.0,70,0.00,,,0.00,,2013-01-25 15:42:00,
2013-01-25 08:52:00,46.0,36.0,30.33,NW,318,1.0,3.0,68,0.00,,,0.00,,2013-01-25 15:52:00,
2013-01-25 09:03:00,46.0,36.0,30.33,NW,318,1.0,3.0,68,0.00,,,0.00,,2013-01-25 16:03:00,
2013-01-25 09:12:00,46.0,36.0,30.33,NW,318,1.0,3.0,68,0.00,,,0.00,,2013-01-25 16:12:00,
2013-01-25 09:22:00,47.0,36.0,30.33,NW,323,1.0,4.0,66,0.00,,,0.00,,2013-01-25 16:22:00,
2013-01-25 09:32:00,48.0,37.0,30.32,NNW,329,1.0,3.0,65,0.00,,,0.00,,2013-01-25 16:32:00,
2013-01-25 09:43:00,48.0,37.0,30.32,NNW,329,1.0,3.0,65,0.00,,,0.00,,2013-01-25 16:43:00,
2013-01-25 09:52:00,48.0,36.0,30.33,North,355,1.0,3.0,64,0.00,,,0.00,,2013-01-25 16:52:00,
2013-01-25 10:02:00,48.0,36.0,30.33,North,355,1.0,3.0,64,0.00,,,0.00,,2013-01-25 17:02:00,
2013-01-25 10:12:00,48.0,36.0,30.33,North,355,1.0,3.0,64,0.00,,,0.00,,2013-01-25 17:12:00,
2013-01-25 10:22:00,49.0,37.0,30.32,North,2,3.0,7.0,63,0.00,,,0.00,,2013-01-25 17:22:00,
2013-01-25 10:32:00,50.0,38.0,30.34,North,354,1.0,4.0,62,0.00,,,0.00,,2013-01-25 17:32:00,
2013-01-25 10:43:00,50.0,38.0,30.34,North,354,1.0,4.0,62,0.00,,,0.00,,2013-01-25 17:43:00,
2013-01-25 10:52:00,50.0,38.0,30.34,North,354,1.0,4.0,62,0.00,,,0.00,,2013-01-25 17:52:00,
2013-01-25 11:03:00,49.0,34.0,30.33,East,100,1.0,2.0,56,0.00,,,0.00,,2013-01-25 18:03:00,
2013-01-25 11:12:00,49.0,34.0,30.33,East,100,1.0,2.0,56,0.00,,,0.00,,2013-01-25 18:12:00,
2013-01-25 11:23:00,50.0,34.0,30.33,ENE,63,1.0,5.0,54,0.00,,,0.00,,2013-01-25 18:23:00,
2013-01-25 11:33:00,49.0,34.0,30.32,ESE,106,0.0,1.0,56,0.00,,,0.00,,2013-01-25 18:33:00,
2013-01-25 11:42:00,49.0,34.0,30.32,ESE,106,0.0,1.0,56,0.00,,,0.00,,2013-01-25 18:42:00,
2013-01-25 11:52:00,50.0,35.0,30.31,ESE,103,1.0,3.0,57,0.00,,,0.00,,2013-01-25 18:52:00,
2013-01-25 12:03:00,51.0,35.0,30.30,NE,56,0.0,2.0,55,0.00,,,0.00,,2013-01-25 19:03:00,
2013-01-25 12:12:00,51.0,35.0,30.30,NE,56,0.0,2.0,55,0.00,,,0.00,,2013-01-25 19:12:00,
2013-01-25 12:22:00,51.0,35.0,30.30,NE,56,0.0,2.0,55,0.00,,,0.00,,2013-01-25 19:22:00,
2013-01-25 12:32:00,52.0,37.0,30.28,SSE,155,0.0,2.0,56,0.00,,,0.00,,2013-01-25 19:32:00,
2013-01-25 12:42:00,52.0,37.0,30.28,SSE,155,0.0,2.0,56,0.00,,,0.00,,2013-01-25 19:42:00,
2013-01-25 12:53:00,52.0,37.0,30.28,SSE,155,0.0,2.0,56,0.00,,,0.00,,2013-01-25 19:53:00,
2013-01-25 13:03:00,54.0,36.0,30.27,South,177,1.0,4.0,51,0.00,,,0.00,,2013-01-25 20:03:00,
2013-01-25 13:12:00,54.0,36.0,30.27,South,177,1.0,4.0,51,0.00,,,0.00,,2013-01-25 20:12:00,
2013-01-25 13:22:00,54.0,37.0,30.24,East,99,1.0,4.0,53,0.00,,,0.00,,2013-01-25 20:22:00,
2013-01-25 13:32:00,54.0,38.0,30.24,NW,326,0.0,3.0,54,0.00,,,0.00,,2013-01-25 20:32:00,
2013-01-25 13:42:00,54.0,38.0,30.24,NW,326,0.0,3.0,54,0.00,,,0.00,,2013-01-25 20:42:00,
2013-01-25 13:52:00,54.0,38.0,30.24,South,186,0.0,2.0,55,0.00,,,0.00,,2013-01-25 20:52:00,
2013-01-25 14:02:00,55.0,38.0,30.23,WSW,237,1.0,5.0,53,0.00,,,0.00,,2013-01-25 21:02:00,
2013-01-25 14:12:00,55.0,38.0,30.23,WSW,237,1.0,5.0,53,0.00,,,0.00,,2013-01-25 21:12:00,
2013-01-25 14:22:00,55.0,39.0,30.23,SW,216,1.0,8.0,54,0.00,,,0.00,,2013-01-25 21:22:00,
2013-01-25 14:33:00,55.0,39.0,30.22,SW,215,2.0,6.0,55,0.00,,,0.00,,2013-01-25 21:33:00,
2013-01-25 14:42:00,55.0,39.0,30.22,SW,215,2.0,6.0,55,0.00,,,0.00,,2013-01-25 21:42:00,
2013-01-25 14:52:00,55.0,39.0,30.22,SW,225,2.0,5.0,55,0.00,,,0.00,,2013-01-25 21:52:00,
2013-01-25 15:03:00,56.0,39.0,30.22,West,261,1.0,6.0,53,0.00,,,0.00,,2013-01-25 22:03:00,
2013-01-25 15:11:00,56.0,39.0,30.22,West,261,1.0,6.0,53,0.00,,,0.00,,2013-01-25 22:11:00,
2013-01-25 15:22:00,56.0,39.0,30.21,SW,217,1.0,4.0,53,0.00,,,0.00,,2013-01-25 22:22:00,
2013-01-25 15:32:00,56.0,39.0,30.21,West,260,1.0,3.0,52,0.00,,,0.00,,2013-01-25 22:32:00,
2013-01-25 15:42:00,56.0,39.0,30.21,West,260,1.0,3.0,52,0.00,,,0.00,,2013-01-25 22:42:00,
2013-01-25 15:52:00,56.0,39.0,30.21,WSW,250,1.0,4.0,53,0.00,,,0.00,,2013-01-25 22:52:00,
2013-01-25 16:02:00,55.0,39.0,30.21,WSW,251,1.0,4.0,55,0.00,,,0.00,,2013-01-25 23:02:00,
2013-01-25 16:12:00,55.0,39.0,30.21,WSW,251,1.0,4.0,55,0.00,,,0.00,,2013-01-25 23:12:00,
2013-01-25 16:22:00,55.0,39.0,30.21,West,267,1.0,4.0,55,0.00,,,0.00,,2013-01-25 23:22:00,
2013-01-25 16:32:00,55.0,39.0,30.21,West,267,1.0,4.0,55,0.00,,,0.00,,2013-01-25 23:32:00,
2013-01-25 16:42:00,55.0,39.0,30.21,West,267,1.0,4.0,55,0.00,,,0.00,,2013-01-25 23:42:00,
2013-01-25 16:52:00,55.0,39.0,30.21,West,267,1.0,4.0,55,0.00,,,0.00,,2013-01-25 23:52:00,
2013-01-25 17:02:00,54.0,39.0,30.20,WSW,244,1.0,2.0,56,0.00,,,0.00,,2013-01-26 00:02:00,
2013-01-25 17:11:00,54.0,39.0,30.20,WSW,244,1.0,2.0,56,0.00,,,0.00,,2013-01-26 00:11:00,
2013-01-25 17:22:00,54.0,39.0,30.20,West,263,0.0,2.0,57,0.00,,,0.00,,2013-01-26 00:22:00,
2013-01-25 17:32:00,53.0,39.0,30.21,WNW,288,0.0,2.0,58,0.00,,,0.00,,2013-01-26 00:32:00,
2013-01-25 17:42:00,53.0,39.0,30.21,WNW,288,0.0,2.0,58,0.00,,,0.00,,2013-01-26 00:42:00,
2013-01-25 17:52:00,52.0,38.0,30.21,WNW,288,0.0,1.0,59,0.00,,,0.00,,2013-01-26 00:52:00,
2013-01-25 18:02:00,52.0,38.0,30.21,WNW,288,0.0,1.0,59,0.00,,,0.00,,2013-01-26 01:02:00,
2013-01-25 18:11:00,52.0,38.0,30.21,WNW,288,0.0,1.0,59,0.00,,,0.00,,2013-01-26 01:11:00,
2013-01-25 18:22:00,50.0,37.0,30.21,WNW,288,0.0,1.0,61,0.00,,,0.00,,2013-01-26 01:22:00,
2013-01-25 18:32:00,49.0,37.0,30.21,North,0,0.0,0.0,62,0.00,,,0.00,,2013-01-26 01:32:00,
2013-01-25 18:42:00,49.0,37.0,30.21,North,0,0.0,0.0,62,0.00,,,0.00,,2013-01-26 01:42:00,
2013-01-25 18:52:00,49.0,37.0,30.21,WNW,288,0.0,1.0,62,0.00,,,0.00,,2013-01-26 01:52:00,
2013-01-25 19:01:00,49.0,37.0,30.21,WNW,288,0.0,1.0,63,0.00,,,0.00,,2013-01-26 02:01:00,
2013-01-25 19:11:00,49.0,37.0,30.21,WNW,288,0.0,1.0,63,0.00,,,0.00,,2013-01-26 02:11:00,
2013-01-25 19:22:00,49.0,37.0,30.22,West,269,0.0,2.0,64,0.00,,,0.00,,2013-01-26 02:22:00,
2013-01-25 19:32:00,50.0,38.0,30.22,West,272,0.0,2.0,63,0.00,,,0.00,,2013-01-26 02:32:00,
2013-01-25 19:42:00,50.0,38.0,30.22,West,272,0.0,2.0,63,0.00,,,0.00,,2013-01-26 02:42:00,
2013-01-25 19:52:00,49.0,37.0,30.22,WNW,288,0.0,2.0,64,0.00,,,0.00,,2013-01-26 02:52:00,
2013-01-25 20:02:00,49.0,37.0,30.22,West,280,0.0,1.0,63,0.00,,,0.00,,2013-01-26 03:02:00,
2013-01-25 20:11:00,49.0,37.0,30.22,West,280,0.0,1.0,63,0.00,,,0.00,,2013-01-26 03:11:00,
2013-01-25 20:21:00,49.0,37.0,30.22,West,279,0.0,1.0,64,0.00,,,0.00,,2013-01-26 03:21:00,
2013-01-25 20:31:00,49.0,37.0,30.21,West,279,0.0,1.0,64,0.00,,,0.00,,2013-01-26 03:31:00,
2013-01-25 20:42:00,49.0,37.0,30.21,West,279,0.0,1.0,64,0.00,,,0.00,,2013-01-26 03:42:00,
2013-01-25 20:51:00,48.0,37.0,30.21,North,0,0.0,0.0,65,0.00,,,0.00,,2013-01-26 03:51:00,
2013-01-25 21:02:00,47.0,37.0,30.21,West,279,0.0,1.0,67,0.00,,,0.00,,2013-01-26 04:02:00,
2013-01-25 21:12:00,47.0,37.0,30.21,West,279,0.0,1.0,67,0.00,,,0.00,,2013-01-26 04:12:00,
2013-01-25 21:21:00,47.0,37.0,30.21,WNW,291,0.0,2.0,68,0.00,,,0.00,,2013-01-26 04:21:00,
2013-01-25 21:32:00,47.0,37.0,30.21,WNW,283,0.0,2.0,68,0.00,,,0.00,,2013-01-26 04:32:00,
2013-01-25 21:42:00,47.0,37.0,30.21,WNW,283,0.0,2.0,68,0.00,,,0.00,,2013-01-26 04:42:00,
2013-01-25 21:52:00,47.0,37.0,30.21,WNW,283,0.0,2.0,68,0.00,,,0.00,,2013-01-26 04:52:00,
2013-01-25 22:03:00,47.0,37.0,30.22,North,0,0.0,0.0,68,0.00,,,0.00,,2013-01-26 05:03:00,
2013-01-25 22:12:00,47.0,37.0,30.22,North,0,0.0,0.0,68,0.00,,,0.00,,2013-01-26 05:12:00,
2013-01-25 22:23:00,47.0,37.0,30.22,West,274,0.0,1.0,69,0.00,,,0.00,,2013-01-26 05:23:00,
2013-01-25 22:33:00,46.0,36.0,30.22,WSW,258,0.0,1.0,69,0.00,,,0.00,,2013-01-26 05:33:00,
2013-01-25 22:41:00,46.0,36.0,30.22,WSW,258,0.0,1.0,69,0.00,,,0.00,,2013-01-26 05:41:00,
2013-01-25 22:52:00,46.0,37.0,30.21,West,264,0.0,2.0,70,0.00,,,0.00,,2013-01-26 05:52:00,
2013-01-25 23:02:00,45.0,36.0,30.21,WNW,291,0.0,2.0,71,0.00,,,0.00,,2013-01-26 06:02:00,
2013-01-25 23:12:00,45.0,36.0,30.21,WNW,291,0.0,2.0,71,0.00,,,0.00,,2013-01-26 06:12:00,
2013-01-25 23:21:00,44.0,36.0,30.21,WNW,289,0.0,1.0,73,0.00,,,0.00,,2013-01-26 06:21:00,
2013-01-25 23:32:00,44.0,36.0,30.21,WNW,289,0.0,1.0,73,0.00,,,0.00,,2013-01-26 06:32:00,
2013-01-25 23:41:00,44.0,36.0,30.21,WNW,289,0.0,1.0,73,0.00,,,0.00,,2013-01-26 06:41:00,
2013-01-25 23:51:00,46.0,37.0,30.20,WNW,300,0.0,2.0,72,0.00,,,0.00,,2013-01-26 06:51:00,